Time;durP1;ratioP1;P1;durP2;ratioP2;P2;SDS_P1;SDS_P2;PMS_P1;PMS_P2;Temp;Humidity;BMP_temperature;BMP_pressure;BME280_temperature;BME280_humidity;BME280_pressure;Samples;Min_cycle;Max_cycle;Signal;HPM_P1;HPM_P2
2023/01/19 00:01:10;;;;;;;8.87;5.93;;;;;;;-2.88;86.99;94400.47;4938800;29;20191;-81
2023/01/19 00:03:36;;;;;;;9.80;6.47;;;;;;;-2.94;86.72;94399.09;4931118;29;20194;-79
2023/01/19 00:06:05;;;;;;;10.00;6.27;;;;;;;-2.93;87.02;94407.53;4939587;29;21851;-79
2023/01/19 00:08:31;;;;;;;8.80;6.20;;;;;;;-2.93;86.57;94403.28;4934252;29;20194;-78
2023/01/19 00:10:56;;;;;;;11.83;5.80;;;;;;;-2.93;86.98;94405.81;4930696;29;20742;-80
2023/01/19 00:13:21;;;;;;;8.30;5.53;;;;;;;-2.86;85.62;94413.88;4939262;29;20223;-81
2023/01/19 00:15:46;;;;;;;11.87;6.33;;;;;;;-2.96;86.71;94406.00;4931304;29;20675;-79
2023/01/19 00:18:12;;;;;;;8.97;6.10;;;;;;;-2.98;86.28;94407.03;4931985;29;20186;-80
2023/01/19 00:20:38;;;;;;;11.40;6.03;;;;;;;-2.93;86.02;94407.53;4930797;29;20302;-80
2023/01/19 00:23:04;;;;;;;11.57;5.80;;;;;;;-3.01;86.07;94402.13;4923126;29;20223;-80
2023/01/19 00:25:29;;;;;;;9.73;6.13;;;;;;;-3.03;86.01;94409.03;4923069;29;20204;-79
2023/01/19 00:27:54;;;;;;;11.67;5.93;;;;;;;-3.13;87.57;94401.97;4924925;29;20213;-79
2023/01/19 00:30:19;;;;;;;10.83;6.03;;;;;;;-3.16;87.05;94412.31;4926937;29;20221;-80
2023/01/19 00:32:45;;;;;;;9.97;6.00;;;;;;;-3.18;87.60;94406.53;4940186;29;20982;-80
2023/01/19 00:35:10;;;;;;;10.07;6.27;;;;;;;-3.18;87.15;94411.59;4938972;29;20195;-81
2023/01/19 00:37:35;;;;;;;9.47;5.53;;;;;;;-3.18;86.85;94409.06;4934596;29;20197;-80
2023/01/19 00:40:00;;;;;;;10.37;5.97;;;;;;;-3.25;86.99;94407.00;4914369;29;20237;-81
2023/01/19 00:42:44;;;;;;;12.00;5.93;;;;;;;-3.31;87.06;94410.69;4906229;29;20927;-80
2023/01/19 00:45:13;;;;;;;8.97;5.57;;;;;;;-3.34;87.13;94405.81;4925713;29;20302;-80
2023/01/19 00:47:38;;;;;;;12.43;5.93;;;;;;;-3.38;87.25;94409.44;4931401;29;20635;-81
2023/01/19 00:50:05;;;;;;;10.40;5.43;;;;;;;-3.30;87.38;94406.44;4928912;29;20245;-78
2023/01/19 00:52:30;;;;;;;9.83;6.00;;;;;;;-3.45;87.61;94413.22;4920130;29;20198;-79
2023/01/19 00:54:56;;;;;;;10.27;5.70;;;;;;;-3.47;87.05;94415.88;4938624;29;20268;-79
2023/01/19 00:57:22;;;;;;;9.57;5.47;;;;;;;-3.36;86.78;94411.88;4948160;29;20186;-80
2023/01/19 00:59:47;;;;;;;9.23;5.27;;;;;;;-3.34;86.77;94410.06;4944737;28;20918;-79
2023/01/19 01:02:12;;;;;;;10.23;5.20;;;;;;;-3.40;87.10;94423.94;4925215;29;20229;-81
2023/01/19 01:04:38;;;;;;;9.07;5.70;;;;;;;-3.45;87.03;94424.19;4946497;29;20666;-80
2023/01/19 01:07:03;;;;;;;7.37;5.37;;;;;;;-3.46;87.13;94422.56;4940838;29;20214;-81
2023/01/19 01:09:29;;;;;;;11.00;5.73;;;;;;;-3.48;87.82;94421.84;4940874;29;20218;-80
2023/01/19 01:11:55;;;;;;;8.23;5.20;;;;;;;-3.52;87.69;94422.16;4933430;29;20693;-80
2023/01/19 01:14:21;;;;;;;10.97;5.10;;;;;;;-3.61;87.25;94423.50;4926908;29;20213;-80
2023/01/19 01:16:47;;;;;;;8.90;5.40;;;;;;;-3.53;86.94;94423.06;4932243;29;20186;-80
2023/01/19 01:19:12;;;;;;;9.70;5.53;;;;;;;-3.55;86.29;94427.38;4924180;29;20273;-79
2023/01/19 01:21:38;;;;;;;7.57;4.80;;;;;;;-3.47;86.98;94430.28;4934766;29;20583;-79
2023/01/19 01:24:03;;;;;;;8.30;4.73;;;;;;;-3.45;86.61;94431.81;4933788;29;20273;-79
2023/01/19 01:26:28;;;;;;;6.37;4.50;;;;;;;-3.46;86.12;94431.91;4919719;29;20784;-79
2023/01/19 01:28:54;;;;;;;7.97;4.77;;;;;;;-3.42;86.59;94438.44;4931505;29;20197;-79
2023/01/19 01:31:19;;;;;;;8.50;4.47;;;;;;;-3.45;86.32;94438.63;4926423;29;20196;-80
2023/01/19 01:33:44;;;;;;;5.80;3.87;;;;;;;-3.46;85.82;94435.25;4940213;29;20210;-78
2023/01/19 01:36:10;;;;;;;9.07;5.43;;;;;;;-3.51;86.52;94433.91;4936802;29;20686;-81
2023/01/19 01:38:36;;;;;;;8.90;4.73;;;;;;;-3.51;86.22;94434.75;4916636;29;20197;-79
2023/01/19 01:41:02;;;;;;;6.97;4.90;;;;;;;-3.40;86.12;94441.72;4935178;29;20221;-80
2023/01/19 01:43:45;;;;;;;7.37;4.67;;;;;;;-3.49;86.82;94432.91;4920444;29;20195;-80
2023/01/19 01:46:14;;;;;;;5.57;4.33;;;;;;;-3.53;86.51;94439.09;4925456;29;20249;-78
2023/01/19 01:48:41;;;;;;;8.33;4.83;;;;;;;-3.62;86.67;94444.72;4932429;29;20220;-79
2023/01/19 01:51:25;;;;;;;8.13;4.87;;;;;;;-3.59;86.47;94436.91;4906928;29;20186;-78
2023/01/19 01:54:02;;;;;;;12.53;6.27;;;;;;;-3.64;86.50;94433.00;4921161;29;20735;-80
2023/01/19 01:56:39;;;;;;;11.20;5.87;;;;;;;-3.46;86.69;94442.06;4926904;29;20241;-80
2023/01/19 01:59:07;;;;;;;12.53;6.03;;;;;;;-3.63;86.24;94444.78;4929634;29;21011;-80
2023/01/19 02:04:17;;;;;;;13.10;6.80;;;;;;;-3.64;87.01;94433.00;4941997;29;20208;-79
2023/01/19 02:14:56;;;;;;;5.60;3.93;;;;;;;-3.56;87.57;94424.03;4941633;29;20557;-80
2023/01/19 02:17:21;;;;;;;7.20;4.40;;;;;;;-3.52;87.18;94427.22;4931408;29;20192;-79
2023/01/19 02:19:47;;;;;;;5.40;3.53;;;;;;;-3.44;88.06;94423.31;4908234;29;20240;-80
2023/01/19 02:22:34;;;;;;;5.30;3.57;;;;;;;-3.34;87.18;94418.50;4941205;29;20194;-79
2023/01/19 02:25:02;;;;;;;5.07;3.57;;;;;;;-3.35;87.40;94433.84;4946366;29;20269;-79
2023/01/19 02:27:27;;;;;;;7.93;3.93;;;;;;;-3.38;86.94;94434.81;4933782;29;20722;-78
2023/01/19 02:29:53;;;;;;;5.93;3.53;;;;;;;-3.43;87.64;94426.66;4926323;29;20218;-82
2023/01/19 02:32:18;;;;;;;5.27;3.37;;;;;;;-3.45;87.91;94424.19;4940297;29;20237;-79
2023/01/19 02:34:43;;;;;;;3.87;3.17;;;;;;;-3.32;87.29;94426.84;4930455;29;20660;-81
2023/01/19 02:37:13;;;;;;;5.67;3.83;;;;;;;-3.31;87.69;94425.13;4932309;29;20724;-79
2023/01/19 02:39:44;;;;;;;6.70;4.00;;;;;;;-3.30;87.30;94421.66;4927348;29;20216;-80
2023/01/19 02:42:18;;;;;;;5.20;3.57;;;;;;;-3.32;87.31;94429.38;4946870;29;20182;-80
2023/01/19 02:44:46;;;;;;;5.00;3.30;;;;;;;-3.31;86.98;94433.53;4930795;29;20193;-79
2023/01/19 02:47:12;;;;;;;7.60;4.90;;;;;;;-3.47;86.69;94430.28;4931982;29;20285;-80
2023/01/19 02:49:37;;;;;;;9.13;5.00;;;;;;;-3.51;87.01;94427.13;4924043;29;20827;-79
2023/01/19 02:52:03;;;;;;;9.53;5.37;;;;;;;-3.62;87.57;94426.94;4918011;29;20211;-79
2023/01/19 02:54:47;;;;;;;8.77;4.93;;;;;;;-3.40;87.33;94439.16;4932705;29;20222;-81
2023/01/19 02:57:23;;;;;;;9.83;4.83;;;;;;;-3.43;87.21;94429.22;4941834;29;20194;-81
2023/01/19 03:00:11;;;;;;;6.43;4.37;;;;;;;-3.43;86.45;94426.66;4921948;29;20213;-80
2023/01/19 03:02:44;;;;;;;7.03;4.27;;;;;;;-3.33;87.30;94426.94;4930481;29;20627;-80
2023/01/19 03:05:23;;;;;;;5.17;3.40;;;;;;;-3.36;87.07;94433.00;4923653;29;20238;-80
2023/01/19 03:08:06;;;;;;;7.20;4.03;;;;;;;-3.33;87.53;94432.00;4922367;29;20265;-79
2023/01/19 03:10:48;;;;;;;6.80;4.47;;;;;;;-3.24;87.14;94427.19;4932852;29;20698;-79
2023/01/19 03:13:25;;;;;;;4.87;3.37;;;;;;;-3.12;87.26;94438.34;4926619;29;20562;-81
2023/01/19 03:15:55;;;;;;;4.43;3.40;;;;;;;-3.05;87.31;94439.59;4926902;29;20222;-81
2023/01/19 03:18:24;;;;;;;4.93;3.70;;;;;;;-2.97;87.28;94439.94;4935909;29;20183;-80
2023/01/19 03:20:52;;;;;;;4.70;3.30;;;;;;;-2.94;86.15;94439.75;4915773;29;20203;-80
2023/01/19 03:23:19;;;;;;;7.37;3.93;;;;;;;-3.02;86.34;94436.03;4931529;29;20189;-80
2023/01/19 03:25:45;;;;;;;5.57;3.43;;;;;;;-3.06;86.22;94429.53;4915769;29;20194;-80
2023/01/19 03:28:13;;;;;;;5.27;3.43;;;;;;;-2.99;85.97;94440.97;4915895;29;20226;-80
2023/01/19 03:30:41;;;;;;;6.10;4.10;;;;;;;-3.06;86.28;94442.22;4924392;29;20220;-80
2023/01/19 03:33:26;;;;;;;4.77;3.50;;;;;;;-3.13;86.02;94436.69;4929438;29;20194;-81
2023/01/19 03:35:56;;;;;;;5.73;3.03;;;;;;;-3.17;85.55;94438.63;4944262;29;20670;-77
2023/01/19 03:38:24;;;;;;;5.53;3.30;;;;;;;-3.24;86.46;94450.06;4913650;29;20273;-79
2023/01/19 03:40:52;;;;;;;9.30;4.00;;;;;;;-3.17;85.76;94443.69;4921836;29;20215;-79
2023/01/19 03:43:18;;;;;;;5.07;3.17;;;;;;;-3.24;85.35;94447.50;4918754;29;20676;-81
2023/01/19 03:45:43;;;;;;;5.80;3.23;;;;;;;-3.22;85.79;94442.34;4936826;29;20233;-78
2023/01/19 03:48:08;;;;;;;6.90;3.97;;;;;;;-3.32;85.82;94437.00;4940935;29;20260;-79
2023/01/19 03:50:34;;;;;;;6.33;3.67;;;;;;;-3.30;86.30;94450.41;4936916;29;20210;-79
2023/01/19 03:53:13;;;;;;;5.43;3.77;;;;;;;-3.40;85.85;94451.88;4919140;29;20611;-78
2023/01/19 03:55:40;;;;;;;8.30;4.40;;;;;;;-3.45;86.37;94452.13;4906345;29;20197;-78
2023/01/19 03:58:05;;;;;;;6.30;3.67;;;;;;;-3.44;86.33;94447.88;4909134;29;20182;-78
2023/01/19 04:00:31;;;;;;;6.03;3.43;;;;;;;-3.40;86.14;94453.59;4915138;29;20397;-80
2023/01/19 04:02:57;;;;;;;9.53;3.57;;;;;;;-3.49;86.82;94453.22;4921882;29;20195;-80
2023/01/19 04:05:22;;;;;;;5.67;4.00;;;;;;;-3.47;87.28;94455.66;4925329;29;20537;-80
2023/01/19 04:07:49;;;;;;;7.17;3.63;;;;;;;-3.37;86.62;94464.38;4919833;29;20556;-79
2023/01/19 04:10:16;;;;;;;5.90;4.37;;;;;;;-3.27;87.36;94464.63;4914476;29;20240;-79
2023/01/19 04:12:41;;;;;;;5.67;3.93;;;;;;;-3.20;86.40;94470.97;4922156;29;20292;-79
2023/01/19 04:15:07;;;;;;;4.57;3.67;;;;;;;-3.11;85.90;94467.06;4936481;29;20195;-79
2023/01/19 04:17:32;;;;;;;6.03;3.57;;;;;;;-3.05;85.63;94470.06;4915811;29;20571;-79
2023/01/19 04:19:58;;;;;;;6.63;4.00;;;;;;;-3.05;85.68;94461.63;4925777;29;20220;-78
2023/01/19 04:22:23;;;;;;;4.83;3.33;;;;;;;-3.06;85.19;94470.16;4931463;29;20209;-81
2023/01/19 04:24:52;;;;;;;5.60;3.73;;;;;;;-3.10;85.87;94468.72;4931217;29;20189;-80
2023/01/19 04:27:17;;;;;;;4.50;3.80;;;;;;;-3.28;85.70;94471.44;4926714;29;20294;-80
2023/01/19 04:29:43;;;;;;;5.53;3.60;;;;;;;-3.43;87.02;94463.03;4938430;29;20345;-80
2023/01/19 04:32:08;;;;;;;4.97;3.23;;;;;;;-3.36;86.32;94466.00;4928525;29;20190;-78
2023/01/19 04:34:33;;;;;;;5.57;3.33;;;;;;;-3.26;86.13;94471.38;4934647;28;20193;-78
2023/01/19 04:36:59;;;;;;;5.17;3.40;;;;;;;-3.40;85.87;94471.34;4937023;29;20185;-78
2023/01/19 04:39:24;;;;;;;8.90;4.57;;;;;;;-3.38;86.23;94467.81;4936664;29;20297;-78
2023/01/19 04:41:50;;;;;;;9.83;4.77;;;;;;;-3.38;86.12;94470.34;4938219;29;20206;-80
2023/01/19 04:44:16;;;;;;;8.43;4.53;;;;;;;-3.44;86.13;94466.47;4935629;29;20190;-79
2023/01/19 04:46:41;;;;;;;8.90;5.30;;;;;;;-3.36;85.46;94465.19;4926950;29;20615;-80
2023/01/19 04:49:07;;;;;;;6.17;4.37;;;;;;;-3.45;86.18;94469.06;4935682;29;20709;-79
2023/01/19 04:51:33;;;;;;;6.27;3.80;;;;;;;-3.49;86.17;94467.63;4923861;29;20213;-80
2023/01/19 04:53:58;;;;;;;6.57;3.53;;;;;;;-3.46;86.31;94475.06;4936192;29;20198;-79
2023/01/19 04:56:23;;;;;;;5.60;3.50;;;;;;;-3.41;86.91;94470.53;4929378;29;20186;-79
2023/01/19 04:58:49;;;;;;;6.10;3.83;;;;;;;-3.44;86.64;94474.09;4925199;29;20792;-78
2023/01/19 05:01:14;;;;;;;5.63;3.73;;;;;;;-3.46;86.39;94469.97;4944164;28;20204;-79
2023/01/19 05:03:39;;;;;;;6.20;3.83;;;;;;;-3.51;86.70;94472.00;4931304;29;20193;-78
2023/01/19 05:06:05;;;;;;;6.00;3.03;;;;;;;-3.35;85.71;94477.00;4936831;29;20216;-80
2023/01/19 05:08:30;;;;;;;7.23;3.93;;;;;;;-3.41;85.57;94475.63;4925581;29;20242;-80
2023/01/19 05:10:56;;;;;;;6.47;5.03;;;;;;;-3.41;86.15;94470.53;4940594;29;20237;-80
2023/01/19 05:13:21;;;;;;;7.60;4.57;;;;;;;-3.44;85.76;94473.28;4937229;29;20193;-81
2023/01/19 05:15:47;;;;;;;5.23;3.67;;;;;;;-3.39;86.20;94466.19;4930904;29;20682;-78
2023/01/19 05:18:12;;;;;;;6.23;4.27;;;;;;;-3.52;86.74;94477.97;4942158;29;20190;-77
2023/01/19 05:20:38;;;;;;;5.97;4.03;;;;;;;-3.51;86.81;94475.34;4936320;29;20221;-78
2023/01/19 05:23:03;;;;;;;7.63;4.07;;;;;;;-3.45;86.78;94479.22;4931346;29;20190;-80
2023/01/19 05:25:29;;;;;;;5.37;3.87;;;;;;;-3.55;86.74;94485.75;4934448;29;20198;-80
2023/01/19 05:27:54;;;;;;;6.57;3.80;;;;;;;-3.49;86.88;94485.41;4926997;29;20241;-82
2023/01/19 05:30:19;;;;;;;6.10;3.60;;;;;;;-3.57;87.31;94485.03;4944802;29;20206;-81
2023/01/19 05:32:45;;;;;;;5.60;4.00;;;;;;;-3.65;87.01;94499.88;4934935;29;20204;-79
2023/01/19 05:35:12;;;;;;;5.50;3.50;;;;;;;-3.59;86.70;94489.38;4936825;29;20197;-82
2023/01/19 05:37:37;;;;;;;5.20;3.87;;;;;;;-3.54;86.91;94500.88;4935466;29;20215;-79
2023/01/19 05:40:03;;;;;;;4.83;3.63;;;;;;;-3.60;86.14;94497.91;4911311;29;20734;-79
2023/01/19 05:42:28;;;;;;;6.33;4.20;;;;;;;-3.52;85.95;94495.75;4937520;29;20335;-81
2023/01/19 05:44:54;;;;;;;8.27;4.20;;;;;;;-3.67;86.04;94494.09;4924434;29;20671;-79
2023/01/19 05:47:19;;;;;;;4.97;3.93;;;;;;;-3.76;86.71;94493.69;4933394;29;20261;-81
2023/01/19 05:49:44;;;;;;;7.33;4.40;;;;;;;-3.77;86.72;94499.69;4932067;29;20218;-81
2023/01/19 05:52:09;;;;;;;4.80;3.70;;;;;;;-3.76;86.18;94508.09;4904463;29;20547;-80
2023/01/19 05:54:39;;;;;;;6.03;4.03;;;;;;;-3.82;86.80;94509.25;4908544;29;20205;-81
2023/01/19 05:57:05;;;;;;;5.03;3.90;;;;;;;-3.87;87.26;94508.72;4940661;29;20186;-81
2023/01/19 05:59:30;;;;;;;4.87;3.83;;;;;;;-3.80;86.54;94512.56;4931696;29;20611;-80
2023/01/19 06:01:56;;;;;;;7.37;4.30;;;;;;;-3.84;86.55;94517.88;4933946;29;20196;-80
2023/01/19 06:04:21;;;;;;;7.73;4.40;;;;;;;-3.92;86.28;94520.00;4932657;29;20727;-80
2023/01/19 06:06:47;;;;;;;8.17;5.47;;;;;;;-3.92;87.00;94522.56;4940978;29;20217;-79
2023/01/19 06:09:12;;;;;;;5.60;4.10;;;;;;;-3.88;85.67;94516.44;4922202;29;20229;-80
2023/01/19 06:11:38;;;;;;;5.90;4.60;;;;;;;-3.91;86.19;94519.94;4931427;29;20600;-80
2023/01/19 06:14:03;;;;;;;6.33;4.20;;;;;;;-3.92;85.50;94520.00;4934097;29;20209;-79
2023/01/19 06:16:28;;;;;;;6.13;4.50;;;;;;;-3.93;85.84;94521.75;4933845;29;20586;-80
2023/01/19 06:18:54;;;;;;;7.50;4.80;;;;;;;-4.01;86.27;94521.34;4937783;29;20214;-80
2023/01/19 06:21:20;;;;;;;5.80;4.23;;;;;;;-4.02;86.49;94522.25;4941576;29;20186;-78
2023/01/19 06:23:45;;;;;;;8.63;4.20;;;;;;;-3.95;86.42;94520.19;4916102;29;20204;-77
2023/01/19 06:26:10;;;;;;;5.97;4.37;;;;;;;-4.04;86.06;94521.53;4919918;29;20198;-78
2023/01/19 06:28:36;;;;;;;6.87;4.43;;;;;;;-4.05;85.95;94519.91;4943934;29;20190;-79
2023/01/19 06:31:01;;;;;;;5.77;4.50;;;;;;;-4.02;86.25;94524.78;4918529;29;20753;-80
2023/01/19 06:33:27;;;;;;;6.77;5.00;;;;;;;-3.94;86.39;94520.09;4935811;29;20241;-81
2023/01/19 06:35:53;;;;;;;4.90;3.67;;;;;;;-3.95;85.79;94518.47;4921415;29;20685;-79
2023/01/19 06:38:18;;;;;;;6.53;4.40;;;;;;;-3.89;85.82;94525.72;4934641;29;20261;-79
2023/01/19 06:40:45;;;;;;;6.70;4.67;;;;;;;-3.91;86.47;94535.16;4930337;29;20208;-77
2023/01/19 06:43:10;;;;;;;6.73;4.90;;;;;;;-3.90;86.62;94529.16;4923616;29;20190;-79
2023/01/19 06:45:38;;;;;;;5.73;4.83;;;;;;;-3.96;86.23;94529.53;4931923;29;20371;-78
2023/01/19 06:48:03;;;;;;;8.20;5.20;;;;;;;-3.86;85.44;94538.25;4926152;29;20214;-78
2023/01/19 06:50:28;;;;;;;7.20;5.57;;;;;;;-3.81;85.86;94531.19;4921879;29;20666;-77
2023/01/19 06:52:54;;;;;;;6.67;4.70;;;;;;;-3.80;85.45;94537.91;4906444;29;20190;-78
2023/01/19 06:55:19;;;;;;;7.77;5.83;;;;;;;-3.83;85.47;94538.06;4941930;29;20190;-79
2023/01/19 06:57:45;;;;;;;7.97;5.97;;;;;;;-3.92;85.84;94536.06;4933683;29;20678;-82
2023/01/19 07:00:12;;;;;;;8.20;6.67;;;;;;;-3.81;85.80;94532.91;4940984;29;20211;-81
2023/01/19 07:02:41;;;;;;;7.53;5.40;;;;;;;-3.77;85.29;94535.19;4939472;29;20261;-80
2023/01/19 07:05:08;;;;;;;7.40;4.73;;;;;;;-3.81;85.59;94540.50;4925458;29;20194;-79
2023/01/19 07:07:33;;;;;;;6.77;5.07;;;;;;;-3.89;85.38;94540.94;4917735;29;20253;-80
2023/01/19 07:09:58;;;;;;;7.83;5.40;;;;;;;-4.08;86.76;94545.41;4924349;29;20237;-79
2023/01/19 07:12:24;;;;;;;6.13;5.23;;;;;;;-4.10;86.47;94554.81;4942867;29;20191;-79
2023/01/19 07:14:49;;;;;;;9.23;6.23;;;;;;;-3.96;86.73;94554.06;4932966;29;20190;-79
2023/01/19 07:17:14;;;;;;;9.00;6.37;;;;;;;-4.01;87.14;94551.78;4931422;29;20190;-79
2023/01/19 07:19:40;;;;;;;9.13;6.83;;;;;;;-3.99;86.93;94557.56;4910792;29;20265;-82
2023/01/19 07:22:05;;;;;;;6.50;5.27;;;;;;;-3.84;87.43;94558.44;4932235;29;20191;-84
2023/01/19 07:24:32;;;;;;;9.27;6.03;;;;;;;-3.84;86.42;94559.28;4910201;29;20187;-82
2023/01/19 07:26:58;;;;;;;8.17;5.37;;;;;;;-3.75;86.39;94558.75;4906744;29;20750;-82
2023/01/19 07:29:24;;;;;;;7.40;4.97;;;;;;;-3.73;87.01;94561.19;4932438;29;20302;-82
2023/01/19 07:31:49;;;;;;;7.87;5.50;;;;;;;-3.81;87.03;94554.00;4917121;29;20678;-83
2023/01/19 07:34:14;;;;;;;6.90;5.03;;;;;;;-3.80;86.97;94555.69;4933672;29;20565;-82
2023/01/19 07:36:40;;;;;;;9.80;5.63;;;;;;;-3.72;86.89;94548.41;4932073;29;20245;-81
2023/01/19 07:39:05;;;;;;;16.43;7.63;;;;;;;-3.71;86.65;94559.38;4932126;29;20210;-82
2023/01/19 07:41:30;;;;;;;7.70;4.90;;;;;;;-3.67;87.30;94555.78;4934719;29;20236;-83
2023/01/19 07:43:56;;;;;;;5.93;4.27;;;;;;;-3.65;87.63;94560.78;4931871;29;20278;-82
2023/01/19 07:46:21;;;;;;;7.60;4.77;;;;;;;-3.53;86.60;94557.56;4931894;29;20183;-81
2023/01/19 07:48:46;;;;;;;9.67;5.00;;;;;;;-3.38;86.50;94564.28;4931501;29;20202;-81
2023/01/19 07:51:16;;;;;;;6.87;3.60;;;;;;;-3.46;87.63;94568.97;4933408;29;20189;-81
2023/01/19 07:53:42;;;;;;;5.43;3.60;;;;;;;-3.20;86.96;94558.13;4933825;29;20193;-82
2023/01/19 07:56:07;;;;;;;6.53;3.53;;;;;;;-3.13;87.10;94564.50;4932904;29;20194;-82
2023/01/19 07:58:33;;;;;;;5.47;4.20;;;;;;;-3.05;87.00;94564.06;4932760;29;20197;-82
2023/01/19 08:00:58;;;;;;;4.87;3.60;;;;;;;-3.01;86.76;94565.50;4920252;29;20202;-80
2023/01/19 08:03:23;;;;;;;6.73;3.27;;;;;;;-2.97;85.97;94563.59;4933137;29;20209;-80
2023/01/19 08:05:50;;;;;;;7.10;3.73;;;;;;;-2.79;85.60;94570.13;4915521;29;20674;-81
2023/01/19 08:08:17;;;;;;;6.33;4.03;;;;;;;-2.75;85.01;94576.66;4933512;29;20207;-82
2023/01/19 08:10:42;;;;;;;5.90;3.97;;;;;;;-2.61;84.58;94578.38;4933339;29;20236;-82
2023/01/19 08:13:07;;;;;;;6.03;3.40;;;;;;;-2.50;84.58;94581.09;4931553;29;20638;-81
2023/01/19 08:15:33;;;;;;;6.03;4.10;;;;;;;-2.27;83.53;94584.78;4914267;29;20649;-81
2023/01/19 08:18:00;;;;;;;7.90;3.47;;;;;;;-2.07;83.24;94578.47;4931407;29;20209;-82
2023/01/19 08:20:26;;;;;;;6.27;3.93;;;;;;;-1.87;82.73;94584.84;4925482;29;20209;-82
2023/01/19 08:22:58;;;;;;;7.57;4.27;;;;;;;-1.89;81.65;94584.13;4922802;29;20217;-82
2023/01/19 08:25:34;;;;;;;5.47;3.80;;;;;;;-1.95;81.46;94582.78;4905231;29;20197;-80
2023/01/19 08:28:00;;;;;;;7.27;4.37;;;;;;;-2.22;81.51;94587.84;4909321;29;20202;-81
2023/01/19 08:30:26;;;;;;;6.80;4.60;;;;;;;-2.09;80.67;94591.28;4908697;29;20216;-83
2023/01/19 08:33:07;;;;;;;7.53;4.20;;;;;;;-2.19;81.60;94590.22;4932661;29;20197;-81
2023/01/19 08:35:37;;;;;;;6.57;4.50;;;;;;;-1.97;80.46;94589.69;4934545;29;20195;-81
2023/01/19 08:38:03;;;;;;;6.67;4.80;;;;;;;-1.83;80.32;94597.28;4924444;29;20186;-81
2023/01/19 08:40:37;;;;;;;6.90;5.47;;;;;;;-1.81;80.75;94594.66;4925906;29;20213;-79
2023/01/19 08:43:06;;;;;;;5.53;4.83;;;;;;;-1.48;79.18;94597.59;4940603;29;20221;-81
2023/01/19 08:45:36;;;;;;;6.87;4.57;;;;;;;-1.36;78.80;94602.81;4930498;29;20192;-81
2023/01/19 08:48:02;;;;;;;11.10;5.80;;;;;;;-1.25;78.44;94597.84;4935429;29;20293;-80
2023/01/19 08:50:29;;;;;;;8.87;6.10;;;;;;;-1.10;79.20;94601.94;4938529;29;20208;-79
2023/01/19 08:52:58;;;;;;;6.77;5.10;;;;;;;-1.15;78.16;94609.06;4919417;29;20221;-81
2023/01/19 08:55:24;;;;;;;8.60;5.70;;;;;;;-1.30;78.57;94605.78;4931379;29;20186;-81
2023/01/19 08:57:51;;;;;;;7.17;5.03;;;;;;;-1.50;79.56;94607.06;4920948;29;20186;-81
2023/01/19 09:00:17;;;;;;;9.03;5.50;;;;;;;-1.37;79.23;94606.28;4925644;29;20703;-81
2023/01/19 09:02:43;;;;;;;7.93;4.83;;;;;;;-1.36;79.54;94611.25;4913695;29;20185;-82
2023/01/19 09:05:08;;;;;;;7.20;5.20;;;;;;;-1.39;79.46;94611.47;4933628;29;20236;-80
2023/01/19 09:07:33;;;;;;;8.57;5.30;;;;;;;-1.24;79.27;94613.00;4946612;29;20206;-83
2023/01/19 09:09:59;;;;;;;7.70;5.63;;;;;;;-0.98;79.13;94611.31;4929768;29;20591;-81
2023/01/19 09:12:24;;;;;;;10.53;5.70;;;;;;;-0.59;76.65;94614.69;4931321;29;20644;-81
2023/01/19 09:14:49;;;;;;;6.07;5.10;;;;;;;-0.43;76.84;94610.19;4927832;29;20189;-80
2023/01/19 09:17:16;;;;;;;7.17;4.93;;;;;;;-0.24;76.41;94611.50;4917268;29;20193;-82
2023/01/19 09:19:42;;;;;;;6.33;4.57;;;;;;;-0.16;76.55;94619.44;4938835;29;20627;-82
2023/01/19 09:22:09;;;;;;;8.90;4.67;;;;;;;-0.02;75.41;94609.06;4935101;29;20272;-81
2023/01/19 09:24:35;;;;;;;9.53;5.27;;;;;;;0.08;75.78;94612.59;4907352;29;20218;-81
2023/01/19 09:27:00;;;;;;;7.53;5.60;;;;;;;0.45;74.64;94620.25;4934472;29;20209;-81
2023/01/19 09:29:26;;;;;;;5.93;4.40;;;;;;;-0.19;75.46;94622.19;4943364;29;20249;-81
2023/01/19 09:31:51;;;;;;;6.93;4.53;;;;;;;-0.27;76.26;94617.59;4933209;29;20209;-82
2023/01/19 09:34:16;;;;;;;5.30;4.13;;;;;;;-0.53;76.54;94621.94;4933523;29;20186;-82
2023/01/19 09:36:42;;;;;;;5.93;4.70;;;;;;;-0.20;76.03;94618.00;4941097;29;20193;-81
2023/01/19 09:39:08;;;;;;;7.87;4.67;;;;;;;-0.10;76.75;94612.16;4933742;29;20249;-81
2023/01/19 09:41:35;;;;;;;7.40;5.33;;;;;;;0.06;75.83;94614.47;4922783;29;20194;-81
2023/01/19 09:44:00;;;;;;;5.20;4.30;;;;;;;0.11;74.98;94609.03;4923633;29;20198;-82
2023/01/19 09:46:31;;;;;;;7.90;5.33;;;;;;;0.00;75.49;94614.91;4934564;29;20289;-82
2023/01/19 09:49:00;;;;;;;6.80;5.07;;;;;;;0.02;75.69;94612.25;4929541;29;20233;-81
2023/01/19 09:51:27;;;;;;;8.23;4.90;;;;;;;0.13;75.53;94608.00;4907163;29;20189;-81
2023/01/19 09:54:11;;;;;;;5.83;4.93;;;;;;;0.34;75.72;94617.63;4940022;29;20190;-81
2023/01/19 09:56:36;;;;;;;5.77;4.77;;;;;;;0.37;74.15;94617.44;4939927;29;20198;-81
2023/01/19 09:59:23;;;;;;;7.37;5.17;;;;;;;0.48;74.48;94620.03;4933315;29;20273;-82
2023/01/19 10:02:26;;;;;;;7.40;5.23;;;;;;;0.32;74.76;94625.41;4924414;29;20189;-81
2023/01/19 10:05:03;;;;;;;7.20;4.77;;;;;;;0.32;74.71;94625.41;4926040;29;20273;-81
2023/01/19 10:07:36;;;;;;;8.80;5.00;;;;;;;0.31;74.45;94622.97;4906298;29;20234;-82
2023/01/19 10:10:19;;;;;;;8.17;4.47;;;;;;;-0.22;76.08;94617.28;4940387;29;20248;-82
2023/01/19 10:12:50;;;;;;;6.47;4.77;;;;;;;-0.41;77.09;94618.56;4943828;29;21088;-82
2023/01/19 10:15:25;;;;;;;7.47;5.03;;;;;;;-0.50;76.84;94629.38;4926941;29;20551;-82
2023/01/19 10:17:50;;;;;;;5.43;4.63;;;;;;;-0.41;77.19;94623.66;4937859;29;20234;-81
2023/01/19 10:20:34;;;;;;;7.27;5.03;;;;;;;0.08;75.97;94616.91;4929086;29;20314;-81
2023/01/19 10:23:00;;;;;;;5.43;4.43;;;;;;;-0.10;75.68;94629.19;4924805;29;20209;-81
2023/01/19 10:25:26;;;;;;;5.13;4.63;;;;;;;0.51;74.92;94628.28;4903954;29;20556;-81
2023/01/19 10:27:51;;;;;;;7.63;4.77;;;;;;;0.55;75.37;94626.34;4925356;29;20217;-81
2023/01/19 10:30:26;;;;;;;7.33;4.80;;;;;;;0.78;73.82;94622.91;4942183;29;20217;-82
2023/01/19 10:32:52;;;;;;;6.30;4.20;;;;;;;0.56;74.25;94627.97;4931610;29;20198;-82
2023/01/19 10:35:23;;;;;;;5.13;4.03;;;;;;;0.55;73.97;94622.03;4926624;29;20217;-82
2023/01/19 10:38:00;;;;;;;5.50;4.50;;;;;;;0.14;75.47;94622.41;4927307;29;20192;-80
2023/01/19 10:40:45;;;;;;;6.57;4.30;;;;;;;0.30;75.15;94621.31;4926498;29;20387;-81
2023/01/19 10:43:32;;;;;;;6.70;4.60;;;;;;;0.56;75.46;94618.56;4927071;29;20746;-80
2023/01/19 10:45:57;;;;;;;6.93;4.83;;;;;;;0.50;74.75;94624.09;4929506;29;20189;-80
2023/01/19 10:48:23;;;;;;;6.73;5.07;;;;;;;0.36;75.61;94629.38;4917892;29;20218;-79
2023/01/19 10:51:01;;;;;;;5.73;4.67;;;;;;;0.43;74.22;94624.63;4935246;29;20222;-81
2023/01/19 10:53:27;;;;;;;7.53;5.60;;;;;;;0.26;75.04;94621.53;4940455;29;20655;-82
2023/01/19 10:56:12;;;;;;;17.10;11.97;;;;;;;0.81;74.02;94616.78;4926113;29;20200;-81
2023/01/19 10:58:39;;;;;;;8.50;5.97;;;;;;;0.85;73.43;94618.19;4918899;29;20178;-81
2023/01/19 11:01:21;;;;;;;8.43;5.90;;;;;;;1.18;73.60;94619.19;4930419;29;20214;-82
2023/01/19 11:03:46;;;;;;;7.63;5.83;;;;;;;0.86;74.24;94627.47;4930976;29;20617;-81
2023/01/19 11:06:12;;;;;;;9.20;6.33;;;;;;;1.22;73.19;94626.53;4922552;29;20193;-79
2023/01/19 11:08:37;;;;;;;7.73;6.13;;;;;;;0.93;73.27;94632.97;4945043;28;20218;-80
2023/01/19 11:11:04;;;;;;;7.67;6.17;;;;;;;0.96;73.01;94631.00;4930318;29;20479;-81
2023/01/19 11:13:30;;;;;;;8.87;5.90;;;;;;;0.88;74.45;94632.47;4939271;29;20250;-81
2023/01/19 11:15:58;;;;;;;9.63;6.17;;;;;;;0.80;74.65;94631.31;4928428;29;20380;-81
2023/01/19 11:18:28;;;;;;;8.47;5.73;;;;;;;0.66;75.37;94628.94;4921538;29;20186;-80
2023/01/19 11:20:55;;;;;;;7.53;5.60;;;;;;;0.64;75.94;94633.34;4923362;29;20210;-81
2023/01/19 11:23:25;;;;;;;8.53;6.17;;;;;;;0.65;75.72;94632.41;4935686;29;20201;-82
2023/01/19 11:25:51;;;;;;;7.27;5.73;;;;;;;0.65;76.38;94634.16;4929921;29;20220;-81
2023/01/19 11:28:18;;;;;;;12.13;6.40;;;;;;;0.21;77.99;94631.25;4940075;29;20500;-80
2023/01/19 11:31:11;;;;;;;7.67;6.60;;;;;;;0.28;77.92;94632.47;4905223;29;20218;-81
2023/01/19 11:33:46;;;;;;;8.87;6.73;;;;;;;0.05;79.73;94628.16;4929105;29;20197;-82
2023/01/19 11:36:22;;;;;;;8.53;6.10;;;;;;;-0.13;80.54;94639.63;4919648;29;20200;-81
2023/01/19 11:38:49;;;;;;;9.50;6.30;;;;;;;0.09;79.96;94627.03;4930427;29;20237;-80
2023/01/19 11:41:20;;;;;;;8.43;6.13;;;;;;;0.27;79.36;94625.72;4928672;29;20273;-81
2023/01/19 11:43:48;;;;;;;8.80;6.60;;;;;;;0.51;78.11;94624.91;4922358;29;20217;-81
2023/01/19 11:46:14;;;;;;;9.03;7.13;;;;;;;0.54;78.62;94628.06;4928345;29;20205;-81
2023/01/19 11:48:48;;;;;;;11.47;6.57;;;;;;;0.70;77.98;94617.53;4919866;29;20219;-81